createdAt,value
2019-03-16T00:00:54.898Z,919.49
2019-03-16T00:01:57.344Z,919.56
2019-03-16T00:02:54.886Z,919.54
2019-03-16T00:03:54.866Z,919.54
2019-03-16T00:04:55.056Z,919.54
2019-03-16T00:05:54.853Z,919.60
2019-03-16T00:06:54.833Z,919.55
2019-03-16T00:07:54.827Z,919.59
2019-03-16T00:08:54.813Z,919.57
2019-03-16T00:09:54.804Z,919.61
2019-03-16T00:10:54.899Z,919.59
2019-03-16T00:11:54.926Z,919.59
2019-03-16T00:12:54.777Z,919.56
2019-03-16T00:13:54.766Z,919.63
2019-03-16T00:14:54.753Z,919.63
2019-03-16T00:15:54.742Z,919.61
2019-03-16T00:16:54.829Z,919.61
2019-03-16T00:17:54.715Z,919.62
2019-03-16T00:18:54.709Z,919.64
2019-03-16T00:19:54.695Z,919.61
2019-03-16T00:20:54.687Z,919.66
2019-03-16T00:21:54.678Z,919.65
2019-03-16T00:22:54.867Z,919.65
2019-03-16T00:23:54.656Z,919.64
2019-03-16T00:24:54.647Z,919.71
2019-03-16T00:25:54.634Z,919.71
2019-03-16T00:26:54.621Z,919.70
2019-03-16T00:27:54.661Z,919.69
2019-03-16T00:28:54.604Z,919.62
2019-03-16T00:29:54.593Z,919.63
2019-03-16T00:30:54.584Z,919.58
2019-03-16T00:31:54.573Z,919.60
2019-03-16T00:32:54.560Z,919.54
2019-03-16T00:33:54.648Z,919.62
2019-03-16T00:34:54.542Z,919.50
2019-03-16T00:35:54.525Z,919.51
2019-03-16T00:36:54.515Z,919.55
2019-03-16T00:37:54.506Z,919.60
2019-03-16T00:38:54.496Z,919.55
2019-03-16T00:39:54.637Z,919.65
2019-03-16T00:40:54.477Z,919.72
2019-03-16T00:41:54.463Z,919.75
2019-03-16T00:42:54.456Z,919.72
2019-03-16T00:43:54.440Z,919.69
2019-03-16T00:44:54.437Z,919.73
2019-03-16T00:45:54.523Z,919.76
2019-03-16T00:46:54.409Z,919.77
2019-03-16T00:47:54.401Z,919.73
2019-03-16T00:48:54.385Z,919.70
2019-03-16T00:49:54.374Z,919.65
2019-03-16T00:50:54.370Z,919.72
2019-03-16T00:51:54.456Z,919.76
2019-03-16T00:52:54.347Z,919.78
2019-03-16T00:53:54.333Z,919.79
2019-03-16T00:54:54.318Z,919.83
2019-03-16T00:55:54.310Z,919.77
2019-03-16T00:56:54.304Z,919.73
2019-03-16T00:57:54.442Z,919.74
2019-03-16T00:58:54.277Z,919.80
2019-03-16T00:59:54.269Z,919.75
2019-03-16T01:00:54.259Z,919.77
2019-03-16T01:01:54.247Z,919.69
2019-03-16T01:02:54.240Z,919.65
2019-03-16T01:03:54.278Z,919.78
2019-03-16T01:04:54.220Z,919.67
2019-03-16T01:05:54.201Z,919.67
2019-03-16T01:06:54.197Z,919.68
2019-03-16T01:07:54.184Z,919.70
2019-03-16T01:08:54.171Z,919.68
2019-03-16T01:09:54.264Z,919.64
2019-03-16T01:10:54.151Z,919.77
2019-03-16T01:11:54.144Z,919.72
2019-03-16T01:12:54.129Z,919.76
2019-03-16T01:13:54.120Z,919.67
2019-03-16T01:14:54.108Z,919.70
2019-03-16T01:15:54.499Z,919.70
2019-03-16T01:16:54.081Z,919.73
2019-03-16T01:17:54.077Z,919.73
2019-03-16T01:18:54.063Z,919.75
2019-03-16T01:19:54.053Z,919.76
2019-03-16T01:20:54.040Z,919.80
2019-03-16T01:21:54.079Z,919.80
2019-03-16T01:22:54.021Z,919.78
2019-03-16T01:23:54.010Z,919.82
2019-03-16T01:24:54.000Z,919.81
2019-03-16T01:25:53.995Z,919.78
2019-03-16T01:26:53.980Z,919.80
2019-03-16T01:27:54.026Z,919.78
2019-03-16T01:28:53.962Z,919.80
2019-03-16T01:29:53.946Z,919.79
2019-03-16T01:30:53.933Z,919.77
2019-03-16T01:31:53.925Z,919.77
2019-03-16T01:32:53.965Z,919.78
2019-03-16T01:33:53.904Z,919.78
2019-03-16T01:34:53.891Z,919.79
2019-03-16T01:35:53.883Z,919.80
2019-03-16T01:36:53.872Z,919.80
2019-03-16T01:37:53.869Z,919.82
2019-03-16T01:38:53.951Z,919.83
2019-03-16T01:39:53.839Z,919.83
2019-03-16T01:40:53.830Z,919.83
2019-03-16T01:41:53.820Z,919.80
2019-03-16T01:42:53.807Z,919.82
2019-03-16T01:43:53.952Z,919.81
2019-03-16T01:44:53.787Z,919.78
2019-03-16T01:45:53.784Z,919.81
2019-03-16T01:46:53.767Z,919.87
2019-03-16T01:47:53.753Z,919.87
2019-03-16T01:48:53.743Z,919.90
2019-03-16T01:49:53.782Z,919.90
2019-03-16T01:50:53.720Z,919.90
2019-03-16T01:51:53.713Z,919.93
2019-03-16T01:52:53.700Z,919.92
2019-03-16T01:53:53.691Z,919.95
2019-03-16T01:54:53.678Z,919.96
2019-03-16T01:55:53.774Z,919.96
2019-03-16T01:56:53.662Z,920.03
2019-03-16T01:57:53.644Z,920.05
2019-03-16T01:58:53.635Z,920.01
2019-03-16T01:59:53.627Z,920.03
2019-03-16T02:00:53.611Z,920.00
2019-03-16T02:01:53.761Z,920.04
2019-03-16T02:02:55.638Z,920.05
2019-03-16T02:03:53.583Z,920.06
2019-03-16T02:04:53.576Z,919.98
2019-03-16T02:05:53.562Z,920.03
2019-03-16T02:06:53.550Z,920.04
2019-03-16T02:07:53.587Z,920.11
2019-03-16T02:08:53.531Z,920.12
2019-03-16T02:09:53.519Z,920.08
2019-03-16T02:10:53.506Z,920.12
2019-03-16T02:11:53.499Z,920.10
2019-03-16T02:12:53.490Z,920.05
2019-03-16T02:13:53.581Z,920.11
2019-03-16T02:14:53.470Z,920.16
2019-03-16T02:15:53.458Z,920.20
2019-03-16T02:16:53.446Z,920.20
2019-03-16T02:17:53.436Z,920.17
2019-03-16T02:18:53.433Z,920.22
2019-03-16T02:19:53.616Z,920.22
2019-03-16T02:20:53.410Z,920.20
2019-03-16T02:21:53.393Z,920.23
2019-03-16T02:22:53.382Z,920.26
2019-03-16T02:23:53.376Z,920.20
2019-03-16T02:24:53.372Z,920.16
2019-03-16T02:25:53.398Z,920.16
2019-03-16T02:26:53.342Z,920.19
2019-03-16T02:27:53.324Z,920.15
2019-03-16T02:28:53.319Z,920.21
2019-03-16T02:29:53.302Z,920.23
2019-03-16T02:30:53.295Z,920.25
2019-03-16T02:31:53.336Z,920.31
2019-03-16T02:32:53.279Z,920.31
2019-03-16T02:33:53.264Z,920.25
2019-03-16T02:34:53.261Z,920.23
2019-03-16T02:35:53.258Z,920.26
2019-03-16T02:36:53.242Z,920.26
2019-03-16T02:37:53.373Z,920.25
2019-03-16T02:38:53.211Z,920.23
2019-03-16T02:39:53.201Z,920.22
2019-03-16T02:40:53.190Z,920.20
2019-03-16T02:41:53.183Z,920.19
2019-03-16T02:42:53.175Z,920.21
2019-03-16T02:43:53.270Z,920.18
2019-03-16T02:44:53.156Z,920.16
2019-03-16T02:45:53.145Z,920.18
2019-03-16T02:46:53.137Z,920.27
2019-03-16T02:47:53.126Z,920.27
2019-03-16T02:48:53.155Z,920.28
2019-03-16T02:49:53.100Z,920.22
2019-03-16T02:50:53.085Z,920.24
2019-03-16T02:51:53.079Z,920.30
2019-03-16T02:52:53.069Z,920.30
2019-03-16T02:53:53.200Z,920.29
2019-03-16T02:54:53.041Z,920.35
2019-03-16T02:55:53.030Z,920.26
2019-03-16T02:56:53.023Z,920.26
2019-03-16T02:57:53.022Z,920.25
2019-03-16T02:58:53.099Z,920.28
2019-03-16T02:59:52.996Z,920.30
2019-03-16T03:00:52.982Z,920.31
2019-03-16T03:01:52.977Z,920.28
2019-03-16T03:02:52.960Z,920.34
2019-03-16T03:03:52.950Z,920.34
2019-03-16T03:04:52.989Z,920.33
2019-03-16T03:05:52.930Z,920.34
2019-03-16T03:06:52.915Z,920.36
2019-03-16T03:07:52.915Z,920.35
2019-03-16T03:08:52.899Z,920.33
2019-03-16T03:09:52.885Z,920.31
2019-03-16T03:10:52.926Z,920.31
2019-03-16T03:11:52.870Z,920.30
2019-03-16T03:12:52.869Z,920.30
2019-03-16T03:13:52.845Z,920.28
2019-03-16T03:14:52.832Z,920.27
2019-03-16T03:15:52.982Z,920.29
2019-03-16T03:16:52.810Z,920.26
2019-03-16T03:17:52.802Z,920.24
2019-03-16T03:18:52.795Z,920.22
2019-03-16T03:19:52.781Z,920.26
2019-03-16T03:20:52.767Z,920.21
2019-03-16T03:21:52.809Z,920.23
2019-03-16T03:22:52.751Z,920.16
2019-03-16T03:23:52.740Z,920.20
2019-03-16T03:24:52.729Z,920.20
2019-03-16T03:25:52.770Z,920.22
2019-03-16T03:26:52.713Z,920.16
2019-03-16T03:27:52.801Z,920.22
2019-03-16T03:28:52.797Z,920.16
2019-03-16T03:29:57.158Z,920.19
2019-03-16T03:30:52.705Z,920.14
2019-03-16T03:31:52.662Z,920.16
2019-03-16T03:32:52.650Z,920.18
2019-03-16T03:34:02.381Z,920.21
2019-03-16T03:34:53.723Z,920.22
2019-03-16T03:35:52.622Z,920.25
2019-03-16T03:36:52.610Z,920.28
2019-03-16T03:37:52.600Z,920.24
2019-03-16T03:38:52.591Z,920.22
2019-03-16T03:39:52.629Z,920.22
2019-03-16T03:40:52.565Z,920.19
2019-03-16T03:41:52.559Z,920.23
2019-03-16T03:42:52.550Z,920.23
2019-03-16T03:43:52.538Z,920.22
2019-03-16T03:44:52.527Z,920.25
2019-03-16T03:45:52.617Z,920.22
2019-03-16T03:46:52.505Z,920.18
2019-03-16T03:47:52.493Z,920.23
2019-03-16T03:48:52.486Z,920.21
2019-03-16T03:49:52.489Z,920.24
2019-03-16T03:50:52.459Z,920.24
2019-03-16T03:51:52.661Z,920.26
2019-03-16T03:52:52.450Z,920.19
2019-03-16T03:53:52.463Z,920.20
2019-03-16T03:54:52.423Z,920.21
2019-03-16T03:55:52.408Z,920.26
2019-03-16T03:56:52.534Z,920.26
2019-03-16T03:57:52.396Z,920.29
2019-03-16T03:58:52.390Z,920.32
2019-03-16T03:59:52.388Z,920.26
2019-03-16T04:00:52.365Z,920.28
2019-03-16T04:01:52.454Z,920.27
2019-03-16T04:02:52.345Z,920.27
2019-03-16T04:03:52.332Z,920.27
2019-03-16T04:04:52.320Z,920.23
2019-03-16T04:05:52.305Z,920.23
2019-03-16T04:06:52.362Z,920.23
2019-03-16T04:07:52.642Z,920.28
2019-03-16T04:08:52.290Z,920.26
2019-03-16T04:09:52.277Z,920.26
2019-03-16T04:10:52.259Z,920.26
2019-03-16T04:11:52.246Z,920.30
2019-03-16T04:12:52.232Z,920.29
2019-03-16T04:13:52.270Z,920.29
2019-03-16T04:14:52.210Z,920.32
2019-03-16T04:15:52.202Z,920.33
2019-03-16T04:16:52.194Z,920.28
2019-03-16T04:17:52.183Z,920.27
2019-03-16T04:18:52.290Z,920.30
2019-03-16T04:19:52.210Z,920.34
2019-03-16T04:20:52.155Z,920.33
2019-03-16T04:21:52.147Z,920.31
2019-03-16T04:22:52.142Z,920.33
2019-03-16T04:23:52.121Z,920.34
2019-03-16T04:24:52.116Z,920.37
2019-03-16T04:25:52.250Z,920.32
2019-03-16T04:26:52.089Z,920.30
2019-03-16T04:27:52.072Z,920.33
2019-03-16T04:28:52.065Z,920.32
2019-03-16T04:29:52.057Z,920.31
2019-03-16T04:30:52.048Z,920.30
2019-03-16T04:31:52.142Z,920.25
2019-03-16T04:32:52.027Z,920.29
2019-03-16T04:33:52.015Z,920.24
2019-03-16T04:34:51.999Z,920.28
2019-03-16T04:35:51.997Z,920.24
2019-03-16T04:36:51.983Z,920.21
2019-03-16T04:37:52.028Z,920.19
2019-03-16T04:38:51.967Z,920.20
2019-03-16T04:39:51.956Z,920.19
2019-03-16T04:40:51.940Z,920.16
2019-03-16T04:41:51.926Z,920.15
2019-03-16T04:42:51.922Z,920.17
2019-03-16T04:43:52.158Z,920.15
2019-03-16T04:44:51.898Z,920.11
2019-03-16T04:45:51.887Z,920.10
2019-03-16T04:46:51.884Z,920.07
2019-03-16T04:47:51.870Z,920.09
2019-03-16T04:48:51.858Z,920.10
2019-03-16T04:49:51.946Z,920.08
2019-03-16T04:50:51.835Z,920.08
2019-03-16T04:51:51.826Z,920.05
2019-03-16T04:52:51.819Z,920.08
2019-03-16T04:53:51.805Z,920.05
2019-03-16T04:54:51.795Z,920.05
2019-03-16T04:55:51.839Z,920.03
2019-03-16T04:56:51.774Z,920.02
2019-03-16T04:57:51.760Z,919.98
2019-03-16T04:58:51.939Z,919.94
2019-03-16T04:59:51.739Z,919.92
2019-03-16T05:00:51.749Z,919.97
2019-03-16T05:01:51.921Z,919.96
2019-03-16T05:02:51.722Z,920.00
2019-03-16T05:03:51.704Z,920.02
2019-03-16T05:04:51.689Z,920.00
2019-03-16T05:05:51.680Z,920.00
2019-03-16T05:06:51.670Z,920.02
2019-03-16T05:07:51.709Z,919.97
2019-03-16T05:08:51.652Z,919.97
2019-03-16T05:09:51.642Z,919.98
2019-03-16T05:10:51.629Z,919.99
2019-03-16T05:11:51.619Z,919.96
2019-03-16T05:12:51.614Z,919.95
2019-03-16T05:13:51.654Z,919.98
2019-03-16T05:14:51.592Z,919.95
2019-03-16T05:15:51.577Z,919.93
2019-03-16T05:16:51.572Z,919.95
2019-03-16T05:17:51.557Z,919.99
2019-03-16T05:18:51.559Z,919.95
2019-03-16T05:19:51.695Z,919.96
2019-03-16T05:20:51.524Z,919.91
2019-03-16T05:21:51.518Z,919.94
2019-03-16T05:22:51.507Z,919.96
2019-03-16T05:23:51.496Z,919.92
2019-03-16T05:24:51.483Z,919.93
2019-03-16T05:25:51.582Z,919.91
2019-03-16T05:26:51.466Z,919.94
2019-03-16T05:27:51.453Z,919.93
2019-03-16T05:28:51.447Z,919.91
2019-03-16T05:29:51.432Z,919.92
2019-03-16T05:30:51.424Z,919.90
2019-03-16T05:31:51.468Z,919.89
2019-03-16T05:32:51.417Z,919.93
2019-03-16T05:33:51.395Z,919.89
2019-03-16T05:34:56.508Z,919.88
2019-03-16T05:35:51.370Z,919.84
2019-03-16T05:36:51.357Z,919.88
2019-03-16T05:37:51.509Z,919.87
2019-03-16T05:38:51.342Z,919.78
2019-03-16T05:39:51.334Z,919.75
2019-03-16T05:40:51.317Z,919.76
2019-03-16T05:41:51.315Z,919.77
2019-03-16T05:42:51.302Z,919.79
2019-03-16T05:43:51.394Z,919.78
2019-03-16T05:44:51.279Z,919.79
2019-03-16T05:45:51.270Z,919.81
2019-03-16T05:46:51.261Z,919.84
2019-03-16T05:47:51.255Z,919.84
2019-03-16T05:48:51.240Z,919.81
2019-03-16T05:49:51.327Z,919.83
2019-03-16T05:50:51.215Z,919.84
2019-03-16T05:51:51.210Z,919.77
2019-03-16T05:52:51.200Z,919.79
2019-03-16T05:53:51.188Z,919.73
2019-03-16T05:54:51.225Z,919.74
2019-03-16T05:55:51.167Z,919.75
2019-03-16T05:56:51.158Z,919.77
2019-03-16T05:57:51.145Z,919.79
2019-03-16T05:58:51.136Z,919.76
2019-03-16T05:59:51.377Z,919.74
2019-03-16T06:00:51.120Z,919.71
2019-03-16T06:01:51.111Z,919.68
2019-03-16T06:02:51.090Z,919.72
2019-03-16T06:03:51.084Z,919.65
2019-03-16T06:04:51.073Z,919.66
2019-03-16T06:05:51.165Z,919.68
2019-03-16T06:06:51.072Z,919.70
2019-03-16T06:07:51.040Z,919.72
2019-03-16T06:08:51.032Z,919.68
2019-03-16T06:09:51.022Z,919.64
2019-03-16T06:10:51.008Z,919.66
2019-03-16T06:11:51.093Z,919.65
2019-03-16T06:12:50.995Z,919.65
2019-03-16T06:13:50.977Z,919.62
2019-03-16T06:14:50.967Z,919.61
2019-03-16T06:15:50.956Z,919.61
2019-03-16T06:16:50.945Z,919.57
2019-03-16T06:17:51.387Z,919.57
2019-03-16T06:18:50.924Z,919.57
2019-03-16T06:19:50.915Z,919.58
2019-03-16T06:20:50.903Z,919.54
2019-03-16T06:21:50.893Z,919.53
2019-03-16T06:22:50.880Z,919.51
2019-03-16T06:23:51.023Z,919.52
2019-03-16T06:24:50.887Z,919.53
2019-03-16T06:25:50.850Z,919.47
2019-03-16T06:26:50.842Z,919.50
2019-03-16T06:27:50.827Z,919.47
2019-03-16T06:28:50.819Z,919.44
2019-03-16T06:29:50.909Z,919.46
2019-03-16T06:30:50.799Z,919.40
2019-03-16T06:31:50.791Z,919.44
2019-03-16T06:32:50.777Z,919.37
2019-03-16T06:33:50.761Z,919.39
2019-03-16T06:34:50.829Z,919.37
2019-03-16T06:35:50.944Z,919.39
2019-03-16T06:36:50.733Z,919.36
2019-03-16T06:37:50.722Z,919.34
2019-03-16T06:38:50.710Z,919.29
2019-03-16T06:39:50.707Z,919.31
2019-03-16T06:40:50.692Z,919.32
2019-03-16T06:41:50.728Z,919.32
2019-03-16T06:42:50.680Z,919.25
2019-03-16T06:43:50.657Z,919.25
2019-03-16T06:44:50.645Z,919.26
2019-03-16T06:45:50.638Z,919.30
2019-03-16T06:46:50.621Z,919.27
2019-03-16T06:47:50.712Z,919.32
2019-03-16T06:48:50.601Z,919.29
2019-03-16T06:49:50.592Z,919.28
2019-03-16T06:50:50.579Z,919.22
2019-03-16T06:51:50.567Z,919.25
2019-03-16T06:52:50.556Z,919.24
2019-03-16T06:53:50.695Z,919.23
2019-03-16T06:54:50.533Z,919.24
2019-03-16T06:55:50.528Z,919.18
2019-03-16T06:56:50.518Z,919.19
2019-03-16T06:57:50.507Z,919.17
2019-03-16T06:58:50.498Z,919.19
2019-03-16T06:59:50.588Z,919.13
2019-03-16T07:00:50.471Z,919.15
2019-03-16T07:01:50.459Z,919.14
2019-03-16T07:02:50.505Z,919.12
2019-03-16T07:03:50.442Z,919.12
2019-03-16T07:04:50.482Z,919.10
2019-03-16T07:05:50.422Z,919.06
2019-03-16T07:06:50.411Z,919.06
2019-03-16T07:07:50.400Z,919.04
2019-03-16T07:08:50.391Z,919.04
2019-03-16T07:09:50.380Z,919.06
2019-03-16T07:10:50.468Z,918.99
2019-03-16T07:11:50.356Z,919.00
2019-03-16T07:12:50.349Z,919.00
2019-03-16T07:13:50.336Z,919.00
2019-03-16T07:14:50.322Z,918.96
2019-03-16T07:15:50.516Z,918.93
2019-03-16T07:17:01.336Z,918.97
2019-03-16T07:18:15.105Z,918.95
2019-03-16T07:19:15.101Z,918.91
2019-03-16T07:20:15.085Z,918.91
2019-03-16T07:21:15.126Z,918.89
2019-03-16T07:22:15.067Z,918.87
2019-03-16T07:23:15.101Z,918.85
2019-03-16T07:24:15.047Z,918.86
2019-03-16T07:25:15.033Z,918.81
2019-03-16T07:26:15.454Z,918.81
2019-03-16T07:27:25.683Z,918.79
2019-03-16T07:28:39.817Z,918.87
2019-03-16T07:29:39.806Z,918.76
2019-03-16T07:30:39.791Z,918.77
2019-03-16T07:31:39.782Z,918.74
2019-03-16T07:32:39.969Z,918.73
2019-03-16T07:33:39.759Z,918.73
2019-03-16T07:34:39.749Z,918.73
2019-03-16T07:35:39.737Z,918.68
2019-03-16T07:36:39.730Z,918.69
2019-03-16T07:37:39.725Z,918.70
2019-03-16T07:38:39.757Z,918.68
2019-03-16T07:39:39.697Z,918.67
2019-03-16T07:40:39.687Z,918.74
2019-03-16T07:41:39.680Z,918.68
2019-03-16T07:42:39.664Z,918.64
2019-03-16T07:43:39.658Z,918.58
2019-03-16T07:44:39.695Z,918.62
2019-03-16T07:45:39.638Z,918.60
2019-03-16T07:46:39.625Z,918.49
2019-03-16T07:47:39.615Z,918.62
2019-03-16T07:48:39.605Z,918.56
2019-03-16T07:49:39.594Z,918.61
2019-03-16T07:50:39.786Z,918.70
2019-03-16T07:51:39.570Z,918.55
2019-03-16T07:52:39.561Z,918.55
2019-03-16T07:53:39.550Z,918.51
2019-03-16T07:54:39.540Z,918.52
2019-03-16T07:55:42.147Z,918.51
2019-03-16T07:56:39.571Z,918.49
2019-03-16T07:57:40.726Z,918.47
2019-03-16T07:58:39.500Z,918.46
2019-03-16T07:59:39.489Z,918.45
2019-03-16T08:00:39.483Z,918.43
2019-03-16T08:01:39.468Z,918.47
2019-03-16T08:02:39.506Z,918.43
2019-03-16T08:03:39.448Z,918.40
2019-03-16T08:04:39.437Z,918.41
2019-03-16T08:05:39.425Z,918.33
2019-03-16T08:06:39.416Z,918.23
2019-03-16T08:07:39.408Z,918.33
2019-03-16T08:08:39.548Z,918.23
2019-03-16T08:09:39.406Z,918.28
2019-03-16T08:10:39.379Z,918.24
2019-03-16T08:11:39.359Z,918.27
2019-03-16T08:12:39.357Z,918.30
2019-03-16T08:13:39.346Z,918.30
2019-03-16T08:14:39.378Z,918.24
2019-03-16T08:15:39.317Z,918.33
2019-03-16T08:16:39.309Z,918.23
2019-03-16T08:17:39.298Z,918.28
2019-03-16T08:18:39.284Z,918.13
2019-03-16T08:19:39.283Z,918.18
2019-03-16T08:20:39.317Z,918.13
2019-03-16T08:21:39.258Z,918.08
2019-03-16T08:22:39.245Z,918.05
2019-03-16T08:23:39.236Z,918.06
2019-03-16T08:24:39.230Z,918.02
2019-03-16T08:25:39.216Z,918.00
2019-03-16T08:26:39.357Z,917.98
2019-03-16T08:27:39.198Z,917.96
2019-03-16T08:28:39.193Z,917.98
2019-03-16T08:29:39.173Z,918.05
2019-03-16T08:30:39.164Z,918.02
2019-03-16T08:31:39.154Z,917.99
2019-03-16T08:32:39.192Z,917.99
2019-03-16T08:33:39.133Z,917.95
2019-03-16T08:34:39.124Z,917.99
2019-03-16T08:35:39.113Z,917.93
2019-03-16T08:36:39.102Z,917.97
2019-03-16T08:37:39.091Z,917.96
2019-03-16T08:38:39.130Z,917.94
2019-03-16T08:39:39.069Z,917.94
2019-03-16T08:40:39.058Z,917.94
2019-03-16T08:41:39.049Z,917.88
2019-03-16T08:42:39.042Z,917.85
2019-03-16T08:43:39.026Z,917.87
2019-03-16T08:44:39.218Z,917.90
2019-03-16T08:45:39.007Z,917.88
2019-03-16T08:46:39.003Z,917.92
2019-03-16T08:47:38.990Z,917.82
2019-03-16T08:48:38.975Z,917.85
2019-03-16T08:49:38.968Z,917.79
2019-03-16T08:50:39.004Z,917.90
2019-03-16T08:51:38.946Z,917.81
2019-03-16T08:52:38.935Z,917.83
2019-03-16T08:53:38.925Z,917.85
2019-03-16T08:54:38.910Z,917.84
2019-03-16T08:55:38.904Z,917.84
2019-03-16T08:56:38.941Z,917.82
2019-03-16T08:57:38.887Z,917.77
2019-03-16T08:58:38.874Z,917.82
2019-03-16T08:59:38.862Z,917.75
2019-03-16T09:00:38.853Z,917.68
2019-03-16T09:01:38.840Z,917.70
2019-03-16T09:02:39.080Z,917.69
2019-03-16T09:03:43.490Z,917.68
2019-03-16T09:04:38.812Z,917.65
2019-03-16T09:05:38.799Z,917.65
2019-03-16T09:06:38.793Z,917.65
2019-03-16T09:07:38.781Z,917.64
2019-03-16T09:08:38.825Z,917.62
2019-03-16T09:09:38.757Z,917.64
2019-03-16T09:10:38.745Z,917.59
2019-03-16T09:11:38.732Z,917.65
2019-03-16T09:12:38.730Z,917.61
2019-03-16T09:13:38.720Z,917.63
2019-03-16T09:14:38.752Z,917.56
2019-03-16T09:15:38.694Z,917.54
2019-03-16T09:16:38.685Z,917.52
2019-03-16T09:17:38.679Z,917.50
2019-03-16T09:18:38.668Z,917.57
2019-03-16T09:19:38.653Z,917.51
2019-03-16T09:20:39.092Z,917.52
2019-03-16T09:21:38.627Z,917.45
2019-03-16T09:22:38.620Z,917.48
2019-03-16T09:23:38.614Z,917.46
2019-03-16T09:24:38.597Z,917.46
2019-03-16T09:25:38.592Z,917.41
2019-03-16T09:26:38.681Z,917.43
2019-03-16T09:27:38.571Z,917.38
2019-03-16T09:28:38.560Z,917.47
2019-03-16T09:29:38.550Z,917.41
2019-03-16T09:30:38.541Z,917.48
2019-03-16T09:31:38.531Z,917.43
2019-03-16T09:32:38.568Z,917.57
2019-03-16T09:33:38.515Z,917.43
2019-03-16T09:34:38.499Z,917.48
2019-03-16T09:35:38.486Z,917.43
2019-03-16T09:36:38.477Z,917.42
2019-03-16T09:37:38.495Z,917.41
2019-03-16T09:38:38.659Z,917.43
2019-03-16T09:39:38.447Z,917.43
2019-03-16T09:40:38.434Z,917.39
2019-03-16T09:41:38.423Z,917.36
2019-03-16T09:42:38.424Z,917.40
2019-03-16T09:43:38.412Z,917.37
2019-03-16T09:44:38.442Z,917.34
2019-03-16T09:45:38.384Z,917.35
2019-03-16T09:46:38.375Z,917.28
2019-03-16T09:47:38.364Z,917.31
2019-03-16T09:48:38.355Z,917.30
2019-03-16T09:49:38.341Z,917.29
2019-03-16T09:50:38.434Z,917.21
2019-03-16T09:51:38.322Z,917.29
2019-03-16T09:52:38.313Z,917.21
2019-03-16T09:53:38.302Z,917.20
2019-03-16T09:54:38.289Z,917.20
2019-03-16T09:55:38.276Z,917.27
2019-03-16T09:56:38.419Z,917.23
2019-03-16T09:57:38.256Z,917.23
2019-03-16T09:58:38.248Z,917.25
2019-03-16T09:59:38.238Z,917.25
2019-03-16T10:00:38.228Z,917.23
2019-03-16T10:01:38.216Z,917.25
2019-03-16T10:02:38.252Z,917.23
2019-03-16T10:03:38.200Z,917.23
2019-03-16T10:04:38.188Z,917.18
2019-03-16T10:05:38.176Z,917.19
2019-03-16T10:06:38.163Z,917.23
2019-03-16T10:07:38.157Z,917.20
2019-03-16T10:08:38.350Z,917.19
2019-03-16T10:09:38.131Z,917.19
2019-03-16T10:10:38.122Z,917.15
2019-03-16T10:11:38.108Z,917.22
2019-03-16T10:12:38.099Z,917.11
2019-03-16T10:13:38.090Z,917.20
2019-03-16T10:14:38.276Z,917.09
2019-03-16T10:15:38.073Z,917.14
2019-03-16T10:16:38.057Z,917.18
2019-03-16T10:17:38.047Z,917.10
2019-03-16T10:18:38.040Z,917.06
2019-03-16T10:19:38.025Z,917.09
2019-03-16T10:20:38.064Z,917.13
2019-03-16T10:21:38.006Z,917.10
2019-03-16T10:22:37.993Z,917.07
2019-03-16T10:23:37.987Z,917.08
2019-03-16T10:24:37.979Z,917.08
2019-03-16T10:25:37.959Z,917.13
2019-03-16T10:26:38.002Z,917.08
2019-03-16T10:27:37.941Z,917.09
2019-03-16T10:28:43.590Z,917.08
2019-03-16T10:29:37.921Z,917.04
2019-03-16T10:30:37.911Z,917.08
2019-03-16T10:31:37.900Z,917.04
2019-03-16T10:32:38.043Z,917.05
2019-03-16T10:33:37.875Z,917.05
2019-03-16T10:34:37.868Z,917.05
2019-03-16T10:35:37.857Z,917.07
2019-03-16T10:36:37.846Z,917.05
2019-03-16T10:37:37.837Z,917.01
2019-03-16T10:38:38.552Z,916.97
2019-03-16T10:39:37.815Z,916.96
2019-03-16T10:40:37.804Z,917.05
2019-03-16T10:41:37.792Z,916.99
2019-03-16T10:42:37.780Z,917.00
2019-03-16T10:43:37.769Z,916.96
2019-03-16T10:44:37.860Z,916.94
2019-03-16T10:45:37.749Z,916.94
2019-03-16T10:46:37.737Z,916.93
2019-03-16T10:47:37.726Z,916.93
2019-03-16T10:48:37.711Z,916.88
2019-03-16T10:49:37.702Z,916.94
2019-03-16T10:50:38.096Z,916.93
2019-03-16T10:51:37.675Z,916.95
2019-03-16T10:52:37.678Z,916.95
2019-03-16T10:53:37.658Z,916.91
2019-03-16T10:54:37.644Z,916.93
2019-03-16T10:55:37.637Z,916.90
2019-03-16T10:56:37.731Z,916.93
2019-03-16T10:57:37.616Z,916.93
2019-03-16T10:58:37.605Z,916.89
2019-03-16T10:59:37.595Z,916.91
2019-03-16T11:00:37.582Z,916.93
2019-03-16T11:01:37.570Z,916.92
2019-03-16T11:02:37.611Z,916.87
2019-03-16T11:03:39.548Z,917.01
2019-03-16T11:04:37.541Z,916.99
2019-03-16T11:05:37.530Z,916.98
2019-03-16T11:06:37.517Z,916.89
2019-03-16T11:07:37.505Z,916.87
2019-03-16T11:08:37.647Z,916.88
2019-03-16T11:09:37.515Z,916.90
2019-03-16T11:10:37.474Z,916.88
2019-03-16T11:11:37.493Z,916.87
2019-03-16T11:12:37.452Z,916.92
2019-03-16T11:13:37.448Z,916.94
2019-03-16T11:14:37.535Z,916.91
2019-03-16T11:15:37.418Z,916.85
2019-03-16T11:16:37.409Z,916.86
2019-03-16T11:17:37.399Z,916.88
2019-03-16T11:18:37.383Z,916.89
2019-03-16T11:19:37.374Z,916.92
2019-03-16T11:20:37.471Z,916.93
2019-03-16T11:21:37.352Z,916.96
2019-03-16T11:22:37.341Z,916.92
2019-03-16T11:23:37.332Z,916.94
2019-03-16T11:24:37.319Z,916.93
2019-03-16T11:25:37.315Z,916.86
2019-03-16T11:26:37.453Z,916.88
2019-03-16T11:27:37.287Z,916.92
2019-03-16T11:28:37.277Z,916.93
2019-03-16T11:29:37.262Z,916.96
2019-03-16T11:30:37.252Z,917.00
2019-03-16T11:31:37.245Z,916.97
2019-03-16T11:32:37.287Z,916.95
2019-03-16T11:33:37.218Z,916.89
2019-03-16T11:34:37.209Z,916.89
2019-03-16T11:35:37.202Z,916.92
2019-03-16T11:36:37.188Z,916.96
2019-03-16T11:37:37.179Z,916.96
2019-03-16T11:38:37.274Z,916.93
2019-03-16T11:39:37.161Z,916.92
2019-03-16T11:40:37.148Z,916.92
2019-03-16T11:41:37.137Z,916.87
2019-03-16T11:42:37.123Z,916.89
2019-03-16T11:43:37.115Z,916.81
2019-03-16T11:44:37.361Z,916.86
2019-03-16T11:45:37.092Z,916.87
2019-03-16T11:46:37.078Z,916.92
2019-03-16T11:47:37.071Z,916.88
2019-03-16T11:48:37.063Z,916.87
2019-03-16T11:49:37.049Z,916.90
2019-03-16T11:50:37.088Z,916.85
2019-03-16T11:51:37.033Z,916.85
2019-03-16T11:52:37.018Z,916.82
2019-03-16T11:53:37.005Z,916.86
2019-03-16T11:54:36.996Z,916.85
2019-03-16T11:55:36.985Z,916.82
2019-03-16T11:56:37.071Z,916.82
2019-03-16T11:57:36.959Z,916.83
2019-03-16T11:58:36.950Z,916.82
2019-03-16T11:59:36.946Z,916.78
2019-03-16T12:00:36.928Z,916.78
2019-03-16T12:01:36.917Z,916.78
2019-03-16T12:02:37.062Z,916.74
2019-03-16T12:03:36.898Z,916.79
2019-03-16T12:04:36.886Z,916.73
2019-03-16T12:05:36.877Z,916.77
2019-03-16T12:06:36.867Z,916.79
2019-03-16T12:07:36.854Z,916.76
2019-03-16T12:08:39.581Z,916.74
2019-03-16T12:09:36.838Z,916.75
2019-03-16T12:10:36.828Z,916.73
2019-03-16T12:11:36.810Z,916.72
2019-03-16T12:12:36.802Z,916.71
2019-03-16T12:13:36.790Z,916.69
2019-03-16T12:14:36.878Z,916.68
2019-03-16T12:15:36.774Z,916.69
2019-03-16T12:16:36.761Z,916.69
2019-03-16T12:17:36.755Z,916.68
2019-03-16T12:18:36.740Z,916.70
2019-03-16T12:19:36.726Z,916.76
2019-03-16T12:20:36.878Z,916.76
2019-03-16T12:21:36.723Z,916.79
2019-03-16T12:22:36.698Z,916.78
2019-03-16T12:23:36.693Z,916.76
2019-03-16T12:24:36.672Z,916.79
2019-03-16T12:25:36.668Z,916.76
2019-03-16T12:26:36.752Z,916.76
2019-03-16T12:27:36.645Z,916.72
2019-03-16T12:28:36.634Z,916.76
2019-03-16T12:29:36.625Z,916.76